Time;durP1;ratioP1;P1;durP2;ratioP2;P2;SDS_P1;SDS_P2;PMS_P1;PMS_P2;Temp;Humidity;BMP_temperature;BMP_pressure;BME280_temperature;BME280_humidity;BME280_pressure;Samples;Min_cycle;Max_cycle;Signal;HPM_P1;HPM_P2
2023/04/09 00:00:00;;;;;;;0.50;0.50;;;;;;;5.29;86.95;97515.34;29394;197;64009;-58
2023/04/09 00:00:32;;;;;;;0.50;0.50;;;;;;;5.28;86.70;97519.09;29395;229;63009;-57
2023/04/09 00:01:08;;;;;;;0.60;0.60;;;;;;;5.27;86.33;97520.16;29394;235;64009;-57
2023/04/09 00:02:46;;;;;;;0.60;0.60;;;;;;;5.30;86.09;97519.69;88178;225;64004;-56
2023/04/09 00:03:17;;;;;;;0.50;0.50;;;;;;;5.31;86.59;97517.81;29394;294;64009;-56
2023/04/09 00:03:48;;;;;;;0.60;0.60;;;;;;;5.30;86.85;97519.69;29395;216;63005;-58
2023/04/09 00:04:21;;;;;;;0.60;0.60;;;;;;;5.30;86.46;97519.69;29395;214;63009;-58
2023/04/09 00:04:52;;;;;;;0.60;0.60;;;;;;;5.32;86.32;97522.94;29395;237;63005;-57
2023/04/09 00:05:23;;;;;;;0.50;0.50;;;;;;;5.31;86.32;97521.31;29395;304;63009;-57
2023/04/09 00:05:55;;;;;;;0.52;0.52;;;;;;;5.33;86.05;97519.19;29395;364;63005;-57
2023/04/09 00:06:26;;;;;;;0.50;0.50;;;;;;;5.33;86.12;97519.19;29394;320;64029;-58
2023/04/09 00:06:57;;;;;;;0.50;0.50;;;;;;;5.34;86.44;97522.72;29395;258;63004;-60
2023/04/09 00:07:28;;;;;;;0.50;0.50;;;;;;;5.33;86.46;97518.38;29395;231;63020;-58
2023/04/09 00:08:00;;;;;;;0.50;0.50;;;;;;;5.33;86.39;97519.19;29395;214;63004;-57
2023/04/09 00:08:31;;;;;;;0.50;0.50;;;;;;;5.33;86.23;97519.19;29395;358;63009;-58
2023/04/09 00:09:03;;;;;;;0.50;0.50;;;;;;;5.33;86.62;97516.50;29395;214;63004;-57
2023/04/09 00:09:34;;;;;;;0.50;0.50;;;;;;;5.34;86.26;97522.72;29395;202;63008;-58
2023/04/09 00:10:07;;;;;;;0.50;0.50;;;;;;;5.34;86.49;97520.00;29395;222;63005;-56
2023/04/09 00:10:39;;;;;;;0.50;0.50;;;;;;;5.35;86.25;97511.69;29395;236;63009;-56
2023/04/09 00:11:10;;;;;;;0.50;0.50;;;;;;;5.36;86.18;97521.41;29395;202;63005;-56
2023/04/09 00:11:41;;;;;;;0.50;0.50;;;;;;;5.37;86.45;97514.97;29394;221;64013;-56
2023/04/09 00:12:13;;;;;;;0.50;0.50;;;;;;;5.37;86.27;97514.16;29395;221;63005;-57
2023/04/09 00:12:44;;;;;;;0.60;0.60;;;;;;;5.36;86.75;97516.03;29395;233;63009;-57
2023/04/09 00:13:16;;;;;;;0.60;0.60;;;;;;;5.36;86.80;97513.34;29394;205;64004;-58
2023/04/09 00:13:48;;;;;;;0.50;0.50;;;;;;;5.36;86.73;97512.50;29395;301;63005;-57
2023/04/09 00:14:19;;;;;;;0.50;0.50;;;;;;;5.36;86.55;97512.50;29395;228;63004;-58
2023/04/09 00:14:50;;;;;;;0.60;0.60;;;;;;;5.36;86.70;97513.34;29395;280;63004;-56
2023/04/09 00:15:22;;;;;;;0.52;0.52;;;;;;;5.37;86.93;97508.75;29394;214;64009;-57
2023/04/09 00:15:57;;;;;;;0.50;0.50;;;;;;;5.37;86.85;97519.53;29394;220;64013;-58
2023/04/09 00:16:28;;;;;;;0.60;0.60;;;;;;;5.36;86.61;97513.34;29394;199;64022;-56
2023/04/09 00:16:59;;;;;;;0.55;0.55;;;;;;;5.38;87.08;97515.78;29394;212;64008;-56
2023/04/09 00:17:31;;;;;;;0.52;0.52;;;;;;;5.36;87.25;97513.34;29395;203;63005;-56
2023/04/09 00:18:02;;;;;;;0.50;0.50;;;;;;;5.36;86.85;97521.41;29395;222;63009;-56
2023/04/09 00:18:34;;;;;;;0.60;0.60;;;;;;;5.35;87.16;97511.69;29395;240;63005;-57
2023/04/09 00:19:06;;;;;;;0.60;0.60;;;;;;;5.35;86.69;97519.78;29395;222;63009;-57
2023/04/09 00:19:37;;;;;;;0.60;0.60;;;;;;;5.36;86.92;97520.59;29395;230;63005;-56
2023/04/09 00:20:09;;;;;;;0.57;0.57;;;;;;;5.36;86.90;97512.50;29395;282;63009;-56
2023/04/09 00:20:41;;;;;;;0.60;0.60;;;;;;;5.36;86.91;97513.34;29395;218;63004;-56
2023/04/09 00:21:12;;;;;;;0.50;0.50;;;;;;;5.37;87.23;97516.84;29395;236;63009;-56
2023/04/09 00:21:43;;;;;;;0.55;0.55;;;;;;;5.36;87.49;97507.13;29394;246;64009;-58
2023/04/09 00:22:15;;;;;;;0.52;0.52;;;;;;;5.35;87.70;97511.69;29395;199;63009;-56
2023/04/09 00:22:47;;;;;;;0.50;0.50;;;;;;;5.33;87.72;97519.19;29395;230;63004;-56
2023/04/09 00:23:19;;;;;;;1.33;1.33;;;;;;;5.32;87.70;97517.56;29395;284;63008;-57
2023/04/09 00:23:50;;;;;;;0.50;0.50;;;;;;;5.32;87.60;97522.94;29395;202;63004;-57
2023/04/09 00:24:21;;;;;;;0.60;0.60;;;;;;;5.32;87.14;97519.44;29395;233;63009;-57
2023/04/09 00:24:53;;;;;;;0.60;0.60;;;;;;;5.29;86.85;97518.06;29395;247;63005;-56
2023/04/09 00:25:25;;;;;;;0.50;0.50;;;;;;;5.29;87.11;97517.22;29395;218;63009;-57
2023/04/09 00:25:56;;;;;;;0.50;0.50;;;;;;;5.29;86.77;97518.06;29395;301;63005;-58
2023/04/09 00:26:30;;;;;;;0.60;0.60;;;;;;;5.28;86.93;97511.03;29395;222;63009;-57
2023/04/09 00:27:02;;;;;;;0.50;0.50;;;;;;;5.28;86.63;97510.22;29394;204;64009;-57
2023/04/09 00:27:33;;;;;;;0.50;0.50;;;;;;;5.28;86.63;97513.72;29395;225;63009;-57
2023/04/09 00:28:04;;;;;;;0.57;0.57;;;;;;;5.28;86.76;97511.03;29395;211;63005;-57
2023/04/09 00:28:36;;;;;;;0.60;0.60;;;;;;;5.28;86.40;97511.03;29395;204;63009;-57
2023/04/09 00:29:07;;;;;;;0.62;0.62;;;;;;;5.28;86.65;97515.59;29395;277;63004;-57
2023/04/09 00:29:38;;;;;;;0.60;0.60;;;;;;;5.26;86.08;97505.09;29395;250;63009;-57
2023/04/09 00:30:10;;;;;;;0.50;0.50;;;;;;;5.25;86.85;97516.91;29395;243;63004;-57
2023/04/09 00:30:42;;;;;;;0.50;0.50;;;;;;;5.25;86.40;97513.41;29395;246;63008;-57
2023/04/09 00:31:13;;;;;;;0.50;0.50;;;;;;;5.24;86.88;97509.88;29395;294;63004;-57
2023/04/09 00:31:44;;;;;;;0.60;0.60;;;;;;;5.25;86.64;97516.09;29394;216;64014;-56
2023/04/09 00:32:16;;;;;;;0.50;0.50;;;;;;;5.23;86.63;97519.03;29395;267;63005;-57
2023/04/09 00:32:47;;;;;;;0.82;0.80;;;;;;;5.22;86.74;97512.00;29395;281;63027;-57
2023/04/09 00:33:19;;;;;;;0.60;0.60;;;;;;;5.23;86.75;97507.44;29395;258;63005;-57
2023/04/09 00:33:50;;;;;;;0.50;0.50;;;;;;;5.23;86.79;97512.81;29395;214;63009;-57
2023/04/09 00:34:22;;;;;;;0.60;0.60;;;;;;;5.23;86.34;97507.44;29396;225;63005;-57
2023/04/09 00:34:53;;;;;;;0.52;0.52;;;;;;;5.25;86.26;97510.72;29395;226;63009;-57
2023/04/09 00:35:24;;;;;;;0.50;0.50;;;;;;;5.24;86.56;97509.88;29395;221;63005;-57
2023/04/09 00:35:56;;;;;;;0.50;0.50;;;;;;;5.24;86.48;97509.88;29394;220;64013;-57
2023/04/09 00:36:27;;;;;;;0.60;0.60;;;;;;;5.24;86.50;97509.06;29394;229;64009;-56
2023/04/09 00:36:58;;;;;;;0.60;0.60;;;;;;;5.24;86.79;97514.44;29395;218;63009;-57
2023/04/09 00:37:30;;;;;;;0.60;0.60;;;;;;;5.23;86.80;97513.63;29394;222;64004;-58
2023/04/09 00:38:01;;;;;;;0.60;0.60;;;;;;;5.22;87.14;97509.31;29395;209;63025;-56
2023/04/09 00:38:33;;;;;;;0.60;0.60;;;;;;;5.22;87.80;97517.38;29395;210;63004;-57
2023/04/09 00:39:04;;;;;;;0.60;0.60;;;;;;;5.19;88.41;97517.91;29395;197;63009;-57
2023/04/09 00:39:35;;;;;;;0.50;0.50;;;;;;;5.17;88.52;97509.25;29394;289;64005;-57
2023/04/09 00:40:07;;;;;;;0.60;0.60;;;;;;;5.17;88.42;97509.25;29395;198;63009;-57
2023/04/09 00:40:40;;;;;;;0.55;0.55;;;;;;;5.16;88.04;97506.81;29395;253;63005;-57
2023/04/09 00:41:11;;;;;;;0.50;0.50;;;;;;;5.17;88.32;97514.63;29395;202;63009;-57
2023/04/09 00:41:43;;;;;;;0.60;0.60;;;;;;;5.18;88.23;97510.88;29394;218;64009;-56
2023/04/09 00:42:15;;;;;;;0.50;0.50;;;;;;;5.19;88.22;97507.13;29395;249;63009;-56
2023/04/09 00:42:46;;;;;;;0.60;0.60;;;;;;;5.20;88.06;97511.44;29395;227;63005;-57
2023/04/09 00:43:18;;;;;;;0.60;0.60;;;;;;;5.20;87.84;97511.44;29395;240;63009;-57
2023/04/09 00:43:49;;;;;;;0.50;0.50;;;;;;;5.21;87.77;97510.38;29395;245;63004;-57
2023/04/09 00:44:21;;;;;;;0.55;0.55;;;;;;;5.23;87.50;97516.31;29395;199;63009;-56
2023/04/09 00:44:53;;;;;;;0.50;0.50;;;;;;;5.25;87.07;97510.72;29394;276;64009;-57
2023/04/09 00:45:25;;;;;;;0.50;0.50;;;;;;;5.27;86.76;97513.97;29395;267;63009;-56
2023/04/09 00:45:58;;;;;;;0.60;0.60;;;;;;;5.28;86.98;97502.97;29394;209;64024;-56
2023/04/09 00:46:31;;;;;;;0.60;0.60;;;;;;;5.29;87.12;97501.91;29395;259;63008;-57
2023/04/09 00:47:03;;;;;;;0.60;0.60;;;;;;;5.30;87.12;97503.53;29395;222;63005;-56
2023/04/09 00:47:35;;;;;;;0.50;0.50;;;;;;;5.30;87.13;97503.53;29395;209;63009;-57
2023/04/09 00:48:07;;;;;;;0.60;0.60;;;;;;;5.32;87.40;97501.41;29395;202;63005;-56
2023/04/09 00:48:39;;;;;;;0.50;0.50;;;;;;;5.32;86.67;97503.28;29395;245;63009;-57
2023/04/09 00:49:11;;;;;;;0.50;0.50;;;;;;;5.33;86.51;97503.06;29394;212;64009;-57
2023/04/09 00:49:43;;;;;;;0.50;0.50;;;;;;;5.35;86.92;97508.19;29395;327;63009;-56
2023/04/09 00:50:16;;;;;;;0.60;0.60;;;;;;;5.34;86.62;97504.69;29395;204;63009;-56
2023/04/09 00:50:47;;;;;;;0.50;0.50;;;;;;;5.37;86.53;97503.38;29395;216;63009;-57
2023/04/09 00:51:18;;;;;;;0.60;0.60;;;;;;;5.37;86.91;97498.81;29395;215;63004;-56
2023/04/09 00:51:50;;;;;;;0.60;0.60;;;;;;;5.37;86.97;97498.81;29395;279;63009;-57
2023/04/09 00:52:25;;;;;;;0.50;0.50;;;;;;;5.39;86.74;97506.66;29395;214;63004;-57
2023/04/09 00:52:57;;;;;;;0.60;0.60;;;;;;;5.38;86.51;97505.00;29395;204;63015;-57
2023/04/09 00:53:29;;;;;;;0.50;0.50;;;;;;;5.38;86.75;97507.72;29395;198;63004;-58
2023/04/09 00:54:00;;;;;;;0.50;0.50;;;;;;;5.41;86.45;97511.78;29395;375;63025;-56
2023/04/09 00:54:32;;;;;;;0.60;0.60;;;;;;;5.42;86.14;97513.41;29394;232;64009;-57
2023/04/09 00:55:05;;;;;;;0.50;0.50;;;;;;;5.41;86.26;97498.34;29395;216;63009;-56
2023/04/09 00:55:40;;;;;;;0.50;0.50;;;;;;;5.42;86.27;97505.34;29395;260;63015;-58
2023/04/09 00:56:14;;;;;;;0.50;0.50;;;;;;;5.42;85.87;97500.78;29395;239;63016;-57
2023/04/09 00:56:46;;;;;;;0.60;0.60;;;;;;;5.43;86.14;97501.59;29395;251;63005;-57
2023/04/09 00:57:18;;;;;;;0.50;0.50;;;;;;;5.45;85.82;97510.25;29395;244;63009;-57
2023/04/09 00:57:50;;;;;;;0.60;0.60;;;;;;;5.44;85.88;97508.59;29394;213;64009;-56
2023/04/09 00:58:21;;;;;;;0.60;0.60;;;;;;;5.44;85.85;97505.91;29395;210;63009;-56
2023/04/09 00:58:53;;;;;;;0.52;0.52;;;;;;;5.43;85.85;97504.28;29395;239;63004;-57
2023/04/09 00:59:25;;;;;;;0.60;0.60;;;;;;;5.43;86.09;97502.41;29394;202;64013;-57
2023/04/09 00:59:57;;;;;;;0.60;0.60;;;;;;;5.42;86.09;97502.66;29395;253;63004;-57
2023/04/09 01:00:28;;;;;;;0.50;0.50;;;;;;;5.39;86.47;97502.09;29395;198;63008;-57
2023/04/09 01:00:59;;;;;;;0.50;0.50;;;;;;;5.37;86.68;97508.75;29395;271;63005;-57
2023/04/09 01:01:31;;;;;;;0.52;0.52;;;;;;;5.36;86.67;97509.81;29395;262;63009;-57
2023/04/09 01:02:02;;;;;;;0.57;0.57;;;;;;;5.35;86.62;97510.88;29394;216;64009;-58
2023/04/09 01:02:34;;;;;;;0.50;0.50;;;;;;;5.34;86.46;97504.69;29395;227;63009;-56
2023/04/09 01:03:06;;;;;;;0.60;0.60;;;;;;;5.35;86.67;97500.94;29395;203;63005;-56
2023/04/09 01:03:38;;;;;;;0.60;0.60;;;;;;;5.35;86.43;97509.00;29395;253;63009;-57
2023/04/09 01:04:09;;;;;;;0.50;0.50;;;;;;;5.35;86.68;97509.00;29395;317;63005;-57
2023/04/09 01:04:43;;;;;;;0.50;0.50;;;;;;;5.35;86.37;97500.94;29395;212;63017;-57
2023/04/09 01:05:15;;;;;;;0.60;0.60;;;;;;;5.36;86.32;97512.50;29395;217;63009;-57
2023/04/09 01:06:15;;;;;;;0.60;0.60;;;;;;;5.36;86.19;97507.94;29395;212;63027;-56
2023/04/09 01:06:52;;;;;;;0.50;0.50;;;;;;;5.36;86.71;97507.94;29394;218;64009;-57
2023/04/09 01:08:18;;;;;;;0.60;0.60;;;;;;;5.36;86.24;97510.63;29395;197;63009;-56
2023/04/09 01:09:32;;;;;;;0.60;0.60;;;;;;;5.38;86.50;97505.84;29395;214;63005;-58
2023/04/09 01:10:47;;;;;;;0.52;0.52;;;;;;;5.38;86.55;97505.00;29394;202;64013;-57
2023/04/09 01:12:11;;;;;;;0.60;0.60;;;;;;;5.36;86.17;97507.94;29395;203;63005;-57
2023/04/09 01:13:03;;;;;;;0.60;0.60;;;;;;;5.33;86.75;97503.06;29395;234;63009;-57
2023/04/09 01:14:04;;;;;;;0.60;0.60;;;;;;;5.35;86.73;97500.94;29417;227;63004;-56
2023/04/09 01:14:48;;;;;;;0.60;0.60;;;;;;;5.36;86.26;97507.13;29416;443;64009;-57
2023/04/09 01:15:28;;;;;;;0.60;0.60;;;;;;;5.36;86.55;97505.25;29373;244;63008;-57
2023/04/09 01:16:01;;;;;;;0.60;0.60;;;;;;;5.37;86.54;97504.19;29394;251;64009;-57
2023/04/09 01:16:35;;;;;;;0.60;0.60;;;;;;;5.38;86.51;97500.44;29395;220;63013;-58
2023/04/09 01:17:16;;;;;;;0.57;0.57;;;;;;;5.38;86.54;97505.84;29395;215;63005;-60
2023/04/09 01:17:55;;;;;;;0.60;0.60;;;;;;;5.36;86.78;97494.50;29395;202;63009;-56
2023/04/09 01:18:43;;;;;;;0.50;0.50;;;;;;;5.35;86.67;97503.63;29395;205;63005;-57
2023/04/09 01:19:39;;;;;;;0.60;0.60;;;;;;;5.36;86.53;97497.19;29395;215;63009;-56
2023/04/09 01:20:39;;;;;;;0.60;0.60;;;;;;;5.36;86.56;97494.50;29395;216;63004;-57
2023/04/09 01:21:17;;;;;;;0.60;0.60;;;;;;;5.39;85.92;97506.66;29394;221;64013;-57
2023/04/09 01:21:49;;;;;;;0.50;0.50;;;;;;;5.40;86.20;97502.91;29394;223;64009;-57
2023/04/09 01:22:48;;;;;;;0.60;0.60;;;;;;;5.41;86.03;97504.53;29395;302;63009;-57
2023/04/09 01:23:57;;;;;;;0.60;0.60;;;;;;;5.42;86.01;97494.59;29395;202;63004;-58
2023/04/09 01:24:59;;;;;;;0.60;0.60;;;;;;;5.41;85.14;97498.34;29394;219;64014;-57
2023/04/09 01:26:02;;;;;;;0.70;0.70;;;;;;;5.41;85.41;97492.94;29395;257;63010;-56
2023/04/09 01:27:02;;;;;;;0.60;0.60;;;;;;;5.41;85.66;97503.72;29417;227;63015;-56
2023/04/09 01:28:34;;;;;;;0.60;0.60;;;;;;;5.43;85.57;97496.22;29395;216;63009;-57
2023/04/09 01:29:06;;;;;;;0.60;0.60;;;;;;;5.43;85.06;97490.81;29395;196;63004;-57
2023/04/09 01:29:49;;;;;;;0.60;0.60;;;;;;;5.43;85.12;97499.72;29394;354;64013;-59
2023/04/09 01:30:21;;;;;;;0.60;0.60;;;;;;;5.43;85.06;97496.22;29395;221;63004;-57
2023/04/09 01:31:12;;;;;;;0.60;0.60;;;;;;;5.42;85.26;97499.97;29395;253;63008;-58
2023/04/09 01:31:45;;;;;;;0.60;0.60;;;;;;;5.43;85.27;97501.59;29417;207;63005;-57
2023/04/09 01:32:20;;;;;;;0.50;0.50;;;;;;;5.42;85.16;97497.28;29395;220;63009;-56
2023/04/09 01:32:56;;;;;;;0.60;0.60;;;;;;;5.42;85.38;97499.97;29395;236;63007;-57
2023/04/09 01:33:30;;;;;;;0.85;0.85;;;;;;;5.41;84.98;97503.72;29395;197;63009;-56
2023/04/09 01:34:02;;;;;;;0.50;0.50;;;;;;;5.42;85.19;97499.97;29395;202;63005;-56
2023/04/09 01:34:35;;;;;;;0.60;0.60;;;;;;;5.41;85.71;97490.25;29395;246;63009;-57
2023/04/09 01:35:07;;;;;;;0.50;0.50;;;;;;;5.41;85.51;97496.47;29394;206;64009;-58
2023/04/09 01:35:41;;;;;;;0.60;0.60;;;;;;;5.39;85.40;97493.19;29395;313;63009;-57
2023/04/09 01:36:19;;;;;;;0.60;0.60;;;;;;;5.39;85.69;97499.38;29395;196;63004;-57
2023/04/09 01:36:57;;;;;;;0.60;0.60;;;;;;;5.39;85.53;97496.69;29394;214;64004;-56
2023/04/09 01:37:28;;;;;;;0.50;0.50;;;;;;;5.39;85.78;97502.09;29395;240;63007;-58
2023/04/09 01:38:02;;;;;;;0.60;0.60;;;;;;;5.38;85.76;97495.06;29395;218;63008;-56
2023/04/09 01:38:36;;;;;;;0.60;0.60;;;;;;;5.38;85.96;97497.75;29395;231;63009;-57
2023/04/09 01:39:08;;;;;;;0.60;0.60;;;;;;;5.38;85.85;97500.44;29395;222;63009;-57
2023/04/09 01:39:41;;;;;;;0.60;0.60;;;;;;;5.36;85.96;97497.19;29395;269;63005;-56
2023/04/09 01:40:12;;;;;;;0.60;0.60;;;;;;;5.36;86.03;97502.56;29395;221;63013;-57
2023/04/09 01:40:44;;;;;;;0.60;0.60;;;;;;;5.35;86.32;97495.56;29395;204;63005;-57
2023/04/09 01:41:20;;;;;;;0.50;0.50;;;;;;;5.34;86.66;97504.69;29394;311;64013;-57
2023/04/09 01:41:52;;;;;;;0.60;0.60;;;;;;;5.33;86.43;97507.63;29395;231;63014;-58
2023/04/09 01:42:25;;;;;;;0.60;0.60;;;;;;;5.32;86.52;97498.72;29395;238;63014;-58
2023/04/09 01:42:59;;;;;;;0.50;0.50;;;;;;;5.31;86.34;97505.16;29394;222;64009;-58
2023/04/09 01:43:32;;;;;;;0.60;0.60;;;;;;;5.32;86.72;97503.28;29395;237;63009;-58
2023/04/09 01:44:06;;;;;;;0.50;0.50;;;;;;;5.32;86.81;97500.59;29395;247;63004;-57
2023/04/09 01:44:40;;;;;;;0.50;0.50;;;;;;;5.31;87.12;97502.47;29395;246;63008;-57
2023/04/09 01:45:13;;;;;;;0.57;0.57;;;;;;;5.29;87.17;97496.53;29395;215;63017;-57
2023/04/09 01:45:46;;;;;;;0.50;0.50;;;;;;;5.28;87.71;97505.66;29394;223;64014;-57
2023/04/09 01:46:20;;;;;;;0.50;0.50;;;;;;;5.26;87.91;97507.78;29395;253;63005;-57
2023/04/09 01:46:53;;;;;;;0.60;0.60;;;;;;;5.27;87.92;97505.91;29395;208;63017;-58
2023/04/09 01:47:26;;;;;;;0.55;0.55;;;;;;;5.26;87.53;97507.78;29395;207;63005;-57
2023/04/09 01:47:58;;;;;;;0.60;0.60;;;;;;;5.26;87.47;97507.78;29395;220;63009;-57
2023/04/09 01:48:30;;;;;;;0.60;0.60;;;;;;;5.26;87.48;97505.09;29395;324;63005;-58
2023/04/09 01:49:02;;;;;;;0.50;0.50;;;;;;;5.25;87.78;97506.13;29395;226;63009;-57
2023/04/09 01:49:35;;;;;;;0.60;0.60;;;;;;;5.24;88.27;97504.50;29394;225;64009;-57
2023/04/09 01:50:07;;;;;;;0.50;0.50;;;;;;;5.21;88.45;97510.38;29395;282;63009;-57
2023/04/09 01:50:40;;;;;;;0.60;0.60;;;;;;;5.19;88.67;97509.84;29395;218;63000;-57
2023/04/09 01:51:13;;;;;;;0.70;0.70;;;;;;;5.18;88.59;97499.31;29395;200;63009;-57
2023/04/09 01:51:44;;;;;;;0.50;0.50;;;;;;;5.17;88.70;97503.88;29394;234;64009;-57
2023/04/09 01:52:17;;;;;;;0.50;0.50;;;;;;;5.17;88.71;97498.50;29395;231;63008;-57
2023/04/09 01:52:49;;;;;;;0.50;0.50;;;;;;;5.17;88.71;97506.56;29395;210;63004;-57
2023/04/09 01:53:21;;;;;;;0.60;0.60;;;;;;;5.16;88.38;97502.25;29395;224;63016;-58
2023/04/09 01:53:53;;;;;;;0.60;0.60;;;;;;;5.16;88.57;97510.31;29395;244;63005;-57
2023/04/09 01:54:24;;;;;;;0.60;0.60;;;;;;;5.15;88.77;97506.00;29395;331;63009;-58
2023/04/09 01:54:56;;;;;;;0.60;0.60;;;;;;;5.13;89.40;97501.91;29395;210;63005;-57
2023/04/09 01:55:27;;;;;;;0.50;0.50;;;;;;;5.11;89.06;97504.84;29394;219;64013;-58
2023/04/09 01:56:00;;;;;;;0.50;0.50;;;;;;;5.11;89.33;97504.03;29395;361;63005;-57
2023/04/09 01:56:49;;;;;;;0.50;0.50;;;;;;;5.10;88.35;97507.78;29395;231;63009;-57
2023/04/09 01:57:20;;;;;;;0.50;0.50;;;;;;;5.09;88.63;97503.44;29395;230;63004;-57
2023/04/09 01:57:52;;;;;;;0.50;0.50;;;;;;;5.07;88.48;97498.31;29395;302;63008;-57
2023/04/09 01:58:25;;;;;;;0.60;0.60;;;;;;;5.06;88.69;97502.06;29395;254;63004;-57
2023/04/09 01:58:56;;;;;;;2.00;1.90;;;;;;;5.05;88.71;97497.75;29395;211;63009;-58
2023/04/09 01:59:28;;;;;;;0.60;0.60;;;;;;;5.04;89.19;97499.63;29395;225;63004;-58
2023/04/09 01:59:59;;;;;;;0.50;0.50;;;;;;;5.04;89.48;97501.50;29395;210;63015;-57
2023/04/09 02:00:37;;;;;;;0.60;0.60;;;;;;;5.01;89.79;97500.09;29394;209;64009;-58
2023/04/09 02:01:30;;;;;;;0.60;0.60;;;;;;;4.98;90.41;97494.37;29395;240;63009;-58
2023/04/09 02:02:09;;;;;;;0.60;0.60;;;;;;;4.97;90.15;97498.12;29394;203;64002;-58
2023/04/09 02:03:32;;;;;;;0.60;0.60;;;;;;;4.98;90.10;97502.44;29395;221;63016;-57
2023/04/09 02:04:09;;;;;;;0.60;0.60;;;;;;;4.99;89.65;97501.37;29417;266;63005;-60
2023/04/09 02:04:49;;;;;;;0.60;0.60;;;;;;;5.01;89.45;97505.47;29373;238;63009;-57
2023/04/09 02:05:25;;;;;;;0.60;0.60;;;;;;;5.02;89.55;97503.59;29395;236;63004;-57
2023/04/09 02:06:14;;;;;;;0.62;0.62;;;;;;;5.01;89.18;97496.59;29395;282;63009;-57
2023/04/09 02:07:16;;;;;;;0.60;0.60;;;;;;;5.02;89.10;97496.34;29394;293;64009;-57
2023/04/09 02:07:52;;;;;;;;;;;;;;;5.03;89.35;97497.16;29996;983;6008;-58
2023/04/09 02:08:25;;;;;;;0.60;0.60;;;;;;;5.04;89.23;97504.19;29400;198;63005;-57
2023/04/09 02:08:59;;;;;;;0.60;0.60;;;;;;;5.05;88.95;97500.44;29395;198;63011;-57
2023/04/09 02:09:33;;;;;;;0.57;0.57;;;;;;;5.06;88.96;97499.38;29395;237;63005;-57
2023/04/09 02:10:07;;;;;;;0.57;0.57;;;;;;;5.07;88.82;97497.50;29394;210;64009;-57
2023/04/09 02:10:40;;;;;;;0.60;0.60;;;;;;;5.07;88.67;97495.63;29395;230;63009;-57
2023/04/09 02:11:14;;;;;;;0.60;0.60;;;;;;;5.08;88.61;97497.25;29395;203;63005;-57
2023/04/09 02:11:47;;;;;;;0.60;0.60;;;;;;;5.08;88.86;97497.25;29395;255;63009;-57
2023/04/09 02:12:22;;;;;;;0.60;0.60;;;;;;;5.08;88.49;97499.94;29395;199;63004;-57
2023/04/09 02:12:55;;;;;;;0.60;0.60;;;;;;;5.09;88.46;97500.75;29394;212;64013;-57
2023/04/09 02:13:29;;;;;;;0.57;0.57;;;;;;;5.08;88.72;97499.94;29395;197;63004;-57
2023/04/09 02:14:07;;;;;;;0.60;0.60;;;;;;;5.09;88.72;97495.38;29395;267;63009;-58
2023/04/09 02:14:40;;;;;;;0.60;0.60;;;;;;;5.09;89.10;97501.56;29395;235;63004;-57
2023/04/09 02:15:12;;;;;;;0.50;0.50;;;;;;;5.07;89.34;97503.69;29395;206;63008;-57
2023/04/09 02:15:46;;;;;;;0.60;0.60;;;;;;;5.08;89.48;97501.81;29395;205;63005;-57
2023/04/09 02:16:17;;;;;;;0.60;0.60;;;;;;;5.06;89.93;97502.06;29395;270;63014;-58
2023/04/09 02:16:50;;;;;;;0.60;0.60;;;;;;;5.05;89.70;97501.25;29395;253;63005;-58
2023/04/09 02:17:22;;;;;;;0.60;0.60;;;;;;;5.06;89.42;97502.06;29394;234;64013;-57
2023/04/09 02:17:54;;;;;;;0.60;0.60;;;;;;;5.05;89.36;97501.25;29395;214;63005;-57
2023/04/09 02:18:28;;;;;;;0.50;0.50;;;;;;;5.04;89.57;97496.09;29395;215;63009;-57
2023/04/09 02:19:02;;;;;;;0.60;0.60;;;;;;;5.04;89.46;97504.19;29395;227;63005;-57
2023/04/09 02:19:41;;;;;;;0.60;0.60;;;;;;;5.03;89.57;97497.16;29395;203;63009;-57
2023/04/09 02:21:22;;;;;;;0.60;0.60;;;;;;;5.02;89.74;97500.91;88174;205;64004;-57
2023/04/09 02:21:54;;;;;;;0.60;0.60;;;;;;;5.02;89.89;97500.91;29394;213;64009;-57
2023/04/09 02:22:25;;;;;;;0.60;0.60;;;;;;;5.00;90.03;97493.09;29395;266;63005;-56
2023/04/09 02:22:56;;;;;;;0.60;0.60;;;;;;;5.00;90.21;97492.28;29395;199;63009;-57
2023/04/09 02:23:27;;;;;;;0.60;0.60;;;;;;;4.98;89.96;97495.19;29395;250;63005;-57
2023/04/09 02:23:59;;;;;;;0.50;0.50;;;;;;;4.99;90.11;97499.53;29394;219;64013;-57
2023/04/09 02:24:30;;;;;;;0.60;0.60;;;;;;;5.01;89.96;97500.09;29395;209;63005;-57
2023/04/09 02:25:01;;;;;;;0.60;0.60;;;;;;;5.00;89.61;97498.47;29395;208;63009;-56
2023/04/09 02:25:33;;;;;;;0.60;0.60;;;;;;;5.01;89.62;97496.59;29395;265;63004;-57
2023/04/09 02:26:04;;;;;;;0.60;0.60;;;;;;;5.01;89.80;97491.22;29395;247;63009;-56
2023/04/09 02:26:36;;;;;;;0.50;0.50;;;;;;;4.99;89.62;97494.13;29395;228;63004;-58
2023/04/09 02:27:07;;;;;;;0.60;0.60;;;;;;;5.01;89.65;97499.28;29394;234;64009;-58
2023/04/09 02:27:39;;;;;;;0.60;0.60;;;;;;;5.00;89.52;97493.09;29395;212;63004;-57
2023/04/09 02:28:10;;;;;;;0.60;0.60;;;;;;;5.01;89.50;97488.53;29395;202;63008;-57
2023/04/09 02:28:41;;;;;;;0.57;0.57;;;;;;;5.02;89.11;97496.34;29394;227;64009;-61
2023/04/09 02:29:13;;;;;;;0.60;0.60;;;;;;;5.01;89.02;97494.72;29395;240;63009;-57
2023/04/09 02:29:44;;;;;;;0.50;0.50;;;;;;;5.02;89.03;97492.84;29395;286;63005;-57
2023/04/09 02:30:15;;;;;;;0.60;0.60;;;;;;;5.03;89.38;97502.53;29395;237;63009;-59
2023/04/09 02:30:47;;;;;;;0.60;0.60;;;;;;;5.03;89.46;97486.41;29395;206;63005;-57
2023/04/09 02:31:18;;;;;;;0.50;0.50;;;;;;;5.03;89.50;97491.78;29395;196;63009;-57
2023/04/09 02:31:51;;;;;;;0.57;0.57;;;;;;;5.02;89.05;97490.97;29395;207;63004;-56
2023/04/09 02:32:23;;;;;;;0.50;0.50;;;;;;;5.02;89.24;97495.53;29395;214;63009;-57
2023/04/09 02:32:54;;;;;;;0.50;0.50;;;;;;;5.02;89.69;97487.47;29395;265;63004;-56
2023/04/09 02:33:25;;;;;;;0.60;0.60;;;;;;;5.02;89.42;97490.16;29394;218;64013;-59
2023/04/09 02:33:57;;;;;;;0.60;0.60;;;;;;;5.02;89.49;97490.97;29395;275;63004;-57
2023/04/09 02:34:28;;;;;;;0.50;0.50;;;;;;;5.02;89.44;97485.59;29395;200;63008;-56
2023/04/09 02:35:00;;;;;;;0.55;0.55;;;;;;;5.03;89.60;97491.78;29395;237;63004;-58
2023/04/09 02:35:31;;;;;;;0.52;0.52;;;;;;;5.02;89.79;97490.16;29395;211;63008;-56
2023/04/09 02:36:04;;;;;;;0.60;0.60;;;;;;;5.02;89.67;97487.47;29394;227;64009;-56
2023/04/09 02:36:35;;;;;;;0.60;0.60;;;;;;;5.02;89.61;97492.84;29395;233;63009;-57
2023/04/09 02:37:06;;;;;;;0.50;0.50;;;;;;;5.01;89.96;97491.22;29395;231;63011;-56
2023/04/09 02:37:37;;;;;;;1.67;1.58;;;;;;;5.00;89.72;97489.56;29395;202;63009;-56
2023/04/09 02:38:12;;;;;;;0.68;0.68;;;;;;;4.99;89.75;97491.44;29394;201;64017;-57
2023/04/09 02:38:44;;;;;;;0.60;0.60;;;;;;;4.99;90.00;97491.44;29395;243;63009;-56
2023/04/09 02:39:15;;;;;;;0.60;0.60;;;;;;;5.00;89.99;97486.88;29395;239;63004;-56
2023/04/09 02:39:46;;;;;;;0.60;0.60;;;;;;;5.00;89.70;97494.97;29395;240;63009;-57
2023/04/09 02:40:21;;;;;;;0.60;0.60;;;;;;;4.98;90.22;97491.69;29395;215;63000;-56
2023/04/09 02:40:52;;;;;;;0.60;0.60;;;;;;;4.98;90.03;97499.75;29395;218;63009;-56
2023/04/09 02:41:23;;;;;;;0.55;0.55;;;;;;;4.97;90.17;97492.75;29395;263;63004;-56
2023/04/09 02:41:55;;;;;;;0.60;0.60;;;;;;;4.97;90.06;97490.88;29394;348;64013;-56
2023/04/09 02:42:26;;;;;;;0.60;0.60;;;;;;;4.96;90.16;97497.31;29394;218;64008;-57
2023/04/09 02:42:58;;;;;;;0.60;0.60;;;;;;;4.98;89.98;97499.75;29395;270;63009;-57
2023/04/09 02:43:29;;;;;;;0.60;0.60;;;;;;;4.97;90.03;97490.06;29395;283;63005;-57
2023/04/09 02:44:01;;;;;;;0.60;0.60;;;;;;;4.99;89.83;97494.13;29394;241;64014;-58
2023/04/09 02:44:32;;;;;;;0.60;0.60;;;;;;;4.98;89.68;97494.37;29395;272;63005;-57
2023/04/09 02:45:04;;;;;;;0.60;0.60;;;;;;;4.96;89.09;97486.56;29395;203;63017;-56
2023/04/09 02:45:36;;;;;;;0.60;0.60;;;;;;;4.94;89.13;97488.66;29395;228;63015;-57
2023/04/09 02:46:08;;;;;;;0.80;0.80;;;;;;;4.94;89.28;97491.34;29394;223;64013;-56
2023/04/09 02:46:43;;;;;;;0.60;0.60;;;;;;;4.95;89.28;97497.56;29395;204;63005;-57
2023/04/09 02:47:14;;;;;;;0.60;0.60;;;;;;;4.94;89.23;97493.22;29395;197;63009;-57
2023/04/09 02:47:45;;;;;;;0.60;0.60;;;;;;;4.96;89.36;97496.50;29395;323;63004;-57
2023/04/09 02:48:17;;;;;;;0.60;0.60;;;;;;;4.96;89.08;97496.50;29395;224;63009;-57
2023/04/09 02:48:49;;;;;;;0.60;0.60;;;;;;;4.97;89.21;97492.75;29395;234;63004;-57
2023/04/09 02:49:20;;;;;;;0.60;0.60;;;;;;;4.96;88.91;97500.00;29395;233;63024;-57
2023/04/09 02:49:52;;;;;;;0.50;0.50;;;;;;;4.96;89.08;97491.94;29395;202;63004;-57
2023/04/09 02:50:24;;;;;;;0.60;0.60;;;;;;;4.97;88.99;97493.56;29395;197;63019;-58